Time;durP1;ratioP1;P1;durP2;ratioP2;P2;SDS_P1;SDS_P2;PMS_P1;PMS_P2;Temp;Humidity;BMP_temperature;BMP_pressure;BME280_temperature;BME280_humidity;BME280_pressure;Samples;Min_cycle;Max_cycle;Signal;HPM_P1;HPM_P2
2022/10/26 00:03:56;;;;;;;10.40;6.93;;;9.50;99.90;;;;;;2617592;54;20255;-79
2022/10/26 00:13:46;;;;;;;15.37;5.93;;;9.50;99.90;;;;;;2616878;54;20382;-78
2022/10/26 00:19:37;;;;;;;14.70;6.70;;;9.50;99.90;;;;;;2623051;54;20378;-81
2022/10/26 00:25:24;;;;;;;17.80;7.20;;;9.50;99.90;;;;;;2621421;54;20422;-78
2022/10/26 00:31:14;;;;;;;13.10;7.50;;;9.50;99.90;;;;;;2616785;54;20178;-78
2022/10/26 00:37:02;;;;;;;8.17;6.90;;;9.60;99.90;;;;;;2617717;39;20800;-78
2022/10/26 00:42:49;;;;;;;14.53;5.80;;;9.70;99.90;;;;;;2617362;54;20154;-77
2022/10/26 00:45:52;;;;;;;9.50;7.07;;;9.70;99.90;;;;;;2616447;54;20431;-78
2022/10/26 00:48:25;;;;;;;11.03;6.90;;;9.80;99.90;;;;;;2615970;47;20189;-78
2022/10/26 00:54:19;;;;;;;10.77;7.03;;;9.80;99.90;;;;;;2617310;54;20466;-77
2022/10/26 01:00:07;;;;;;;12.33;6.60;;;9.90;99.90;;;;;;2617021;54;20395;-78
2022/10/26 01:05:57;;;;;;;8.50;6.00;;;10.00;99.90;;;;;;2616510;54;20412;-78
2022/10/26 01:11:57;;;;;;;11.10;7.20;;;10.00;99.90;;;;;;2615203;47;20391;-78
2022/10/26 01:30:48;;;;;;;11.93;6.60;;;10.10;99.90;;;;;;2623702;54;20391;-83
2022/10/26 01:36:57;;;;;;;11.40;6.47;;;10.10;99.90;;;;;;2623773;54;20379;-79
2022/10/26 01:42:50;;;;;;;8.10;5.63;;;10.10;99.90;;;;;;2624055;54;20416;-83
2022/10/26 01:48:40;;;;;;;9.57;5.97;;;10.20;99.90;;;;;;2624341;54;20363;-83
2022/10/26 01:54:29;;;;;;;9.43;5.90;;;10.20;99.90;;;;;;2623770;54;20383;-78
2022/10/26 02:00:17;;;;;;;12.27;6.90;;;10.20;99.90;;;;;;2615775;54;20350;-78
2022/10/26 02:06:32;;;;;;;9.40;7.40;;;10.30;99.90;;;;;;2616212;54;20154;-78
2022/10/26 02:25:19;;;;;;;7.90;6.93;;;10.50;99.90;;;;;;2615908;54;20430;-78
2022/10/26 02:31:10;;;;;;;13.43;7.37;;;10.50;99.90;;;;;;2623945;54;20386;-80
2022/10/26 02:37:00;;;;;;;13.63;6.80;;;10.50;99.90;;;;;;2618275;54;20395;-78
2022/10/26 02:42:50;;;;;;;15.10;6.30;;;10.50;99.90;;;;;;2617983;54;20393;-78
2022/10/26 02:48:38;;;;;;;10.50;6.37;;;10.50;99.90;;;;;;2617065;54;21089;-78
2022/10/26 03:00:43;;;;;;;8.40;5.83;;;10.60;99.90;;;;;;2624014;54;20407;-82
2022/10/26 03:06:31;;;;;;;10.30;6.50;;;10.70;99.90;;;;;;2617004;54;20542;-79
2022/10/26 03:09:14;;;;;;;8.73;6.73;;;10.80;99.90;;;;;;2617058;54;20420;-78
2022/10/26 03:11:40;;;;;;;13.90;6.07;;;10.80;99.90;;;;;;2617203;47;20171;-79
2022/10/26 03:17:28;;;;;;;14.43;7.40;;;10.90;99.90;;;;;;2617424;54;20123;-80
2022/10/26 03:23:16;;;;;;;9.67;6.20;;;10.90;99.90;;;;;;2617821;31;20910;-79
2022/10/26 03:29:04;;;;;;;10.90;6.30;;;10.90;99.90;;;;;;2616247;39;20537;-77
2022/10/26 03:34:51;;;;;;;8.70;6.50;;;11.00;99.90;;;;;;2616482;54;20146;-76
2022/10/26 03:40:40;;;;;;;13.73;6.47;;;11.00;99.90;;;;;;2616587;54;20154;-78
2022/10/26 03:46:28;;;;;;;12.03;7.27;;;11.10;99.90;;;;;;2616307;54;20402;-76
2022/10/26 03:52:15;;;;;;;11.70;7.10;;;11.00;99.90;;;;;;2616175;54;20153;-76
2022/10/26 03:58:03;;;;;;;10.37;8.17;;;11.20;99.90;;;;;;2616994;54;20150;-76
2022/10/26 04:03:50;;;;;;;11.90;7.30;;;11.10;99.90;;;;;;2616413;54;20623;-75
2022/10/26 04:13:47;;;;;;;10.27;4.77;;;11.20;99.90;;;;;;2616162;54;20968;-77
2022/10/26 04:19:35;;;;;;;7.53;3.80;;;12.70;99.90;;;;;;2615295;54;20387;-77
2022/10/26 04:25:22;;;;;;;5.70;3.30;;;13.90;99.90;;;;;;2615981;54;20138;-79
2022/10/26 04:31:10;;;;;;;4.40;3.50;;;14.10;99.90;;;;;;2616305;54;20135;-79
2022/10/26 04:36:58;;;;;;;5.13;3.30;;;14.20;99.90;;;;;;2616601;54;20126;-77
2022/10/26 04:42:46;;;;;;;5.30;2.60;;;14.40;99.90;;;;;;2616664;54;20662;-77
2022/10/26 04:48:34;;;;;;;8.33;2.67;;;14.40;99.90;;;;;;2616496;54;20410;-77
2022/10/26 04:54:21;;;;;;;3.70;3.00;;;14.50;99.90;;;;;;2616964;54;20114;-77
2022/10/26 05:00:10;;;;;;;7.13;2.77;;;14.60;99.90;;;;;;2616185;54;20149;-77
2022/10/26 05:05:58;;;;;;;6.23;2.50;;;14.70;99.90;;;;;;2614953;54;20395;-76
2022/10/26 05:09:15;;;;;;;4.23;2.40;;;14.80;99.90;;;;;;2616313;39;20735;-77
2022/10/26 05:11:41;;;;;;;8.73;3.03;;;14.70;99.90;;;;;;2615569;39;20837;-76
2022/10/26 05:17:29;;;;;;;7.50;3.10;;;14.80;99.90;;;;;;2615785;39;20212;-80
2022/10/26 05:23:17;;;;;;;2.90;2.23;;;14.80;99.90;;;;;;2615320;54;20174;-80
2022/10/26 05:29:04;;;;;;;4.10;2.60;;;15.00;99.90;;;;;;2615445;54;20418;-79
2022/10/26 05:34:52;;;;;;;4.30;2.30;;;15.10;99.90;;;;;;2616054;54;20122;-79
2022/10/26 05:40:48;;;;;;;4.70;4.07;;;15.00;99.90;;;;;;2614074;54;20250;-79
2022/10/26 05:46:35;;;;;;;3.00;2.23;;;15.10;99.90;;;;;;2614391;39;20807;-79
2022/10/26 05:52:23;;;;;;;6.40;2.70;;;15.00;99.90;;;;;;2615959;54;20150;-78
2022/10/26 05:58:13;;;;;;;4.97;2.83;;;15.10;99.90;;;;;;2614719;54;20161;-80
2022/10/26 06:13:46;;;;;;;6.37;3.00;;;14.80;99.90;;;;;;2633500;36;20768;-78
2022/10/26 06:32:45;;;;;;;6.10;3.00;;;15.00;99.90;;;;;;2612702;54;20398;-83
2022/10/26 06:38:35;;;;;;;6.10;2.83;;;15.10;99.90;;;;;;2618371;39;20724;-81
2022/10/26 06:41:38;;;;;;;5.83;2.97;;;15.00;99.90;;;;;;2616269;54;20411;-81
2022/10/26 06:44:05;;;;;;;6.07;2.60;;;15.10;99.90;;;;;;2615970;47;20549;-81
2022/10/26 06:49:58;;;;;;;3.60;2.60;;;15.20;99.90;;;;;;2616501;54;20375;-82
2022/10/26 06:55:49;;;;;;;3.70;2.50;;;15.30;99.90;;;;;;2616969;39;20775;-81
2022/10/26 07:01:37;;;;;;;6.87;3.10;;;15.20;99.90;;;;;;2617001;54;20387;-78
2022/10/26 07:07:28;;;;;;;4.00;2.53;;;15.30;99.90;;;;;;2617125;54;20423;-79
2022/10/26 07:13:16;;;;;;;7.77;2.93;;;15.50;99.90;;;;;;2616907;54;20483;-80
2022/10/26 07:19:04;;;;;;;3.20;2.80;;;15.70;99.90;;;;;;2616828;54;20153;-80
2022/10/26 07:24:52;;;;;;;3.23;2.80;;;15.80;99.90;;;;;;2618860;39;20501;-79
2022/10/26 07:30:40;;;;;;;3.40;2.70;;;16.00;99.90;;;;;;2618812;54;20242;-79
2022/10/26 07:36:28;;;;;;;3.70;3.40;;;16.30;99.90;;;;;;2621453;39;20560;-83
2022/10/26 07:42:16;;;;;;;5.30;3.17;;;16.50;99.90;;;;;;2621579;54;20383;-84
2022/10/26 07:48:04;;;;;;;6.77;3.73;;;16.60;99.90;;;;;;2622906;54;20125;-83
2022/10/26 07:53:52;;;;;;;4.07;3.67;;;16.80;99.90;;;;;;2622018;39;20774;-83
2022/10/26 07:59:40;;;;;;;9.37;4.00;;;17.60;99.90;;;;;;2621797;54;20135;-82
2022/10/26 08:05:27;;;;;;;4.80;4.27;;;19.60;64.10;;;;;;2618038;54;20130;-78
2022/10/26 08:14:37;;;;;;;11.33;5.00;;;19.70;66.10;;;;;;2618381;54;20979;-79
2022/10/26 08:20:25;;;;;;;7.33;4.67;;;20.90;53.10;;;;;;2618309;54;20130;-79
2022/10/26 08:26:16;;;;;;;6.17;5.30;;;20.10;57.00;;;;;;2621350;54;20134;-83
2022/10/26 08:32:04;;;;;;;5.20;4.77;;;21.00;54.10;;;;;;2620086;54;20387;-80
2022/10/26 08:37:52;;;;;;;5.53;5.13;;;21.30;49.70;;;;;;2617121;54;20351;-79
2022/10/26 08:43:48;;;;;;;5.23;4.73;;;21.10;51.50;;;;;;2614437;54;21120;-78
2022/10/26 08:56:17;;;;;;;7.37;5.63;;;21.50;44.80;;;;;;2615178;54;20966;-79
2022/10/26 09:31:00;;;;;;;5.77;5.27;;;22.60;38.50;;;;;;2617752;54;20391;-81
2022/10/26 09:36:53;;;;;;;6.00;5.50;;;22.40;41.10;;;;;;2619930;39;20882;-80
2022/10/26 09:49:11;;;;;;;6.47;5.37;;;20.80;52.20;;;;;;2617103;54;20395;-79
2022/10/26 09:54:59;;;;;;;7.80;5.37;;;20.40;56.90;;;;;;2613759;54;20366;-79
2022/10/26 10:00:46;;;;;;;6.13;5.40;;;20.60;58.20;;;;;;2615707;54;20165;-79
2022/10/26 10:06:36;;;;;;;7.40;5.60;;;22.80;46.90;;;;;;2616533;54;20118;-82
2022/10/26 10:12:24;;;;;;;8.33;5.30;;;23.10;41.50;;;;;;2617633;54;20379;-81
2022/10/26 10:21:33;;;;;;;7.47;5.70;;;21.70;53.30;;;;;;2617506;54;20379;-82
2022/10/26 10:27:23;;;;;;;5.83;5.20;;;23.20;42.70;;;;;;2614874;54;20514;-81
2022/10/26 10:33:11;;;;;;;8.37;6.10;;;22.50;42.90;;;;;;2616820;54;20410;-79
2022/10/26 10:39:00;;;;;;;13.00;6.00;;;22.50;44.00;;;;;;2615437;54;20395;-78
2022/10/26 10:44:51;;;;;;;10.07;6.27;;;22.80;45.90;;;;;;2616410;54;20384;-79
2022/10/26 11:04:22;;;;;;;7.60;6.83;;;22.90;45.20;;;;;;2615485;54;20379;-79
2022/10/26 11:10:14;;;;;;;7.73;6.93;;;23.10;43.30;;;;;;2615567;54;20411;-77
2022/10/26 11:33:24;;;;;;;6.80;6.30;;;23.90;45.30;;;;;;2614856;54;20449;-77
2022/10/26 11:39:43;;;;;;;6.70;6.20;;;23.20;46.00;;;;;;2614640;54;20507;-78
2022/10/26 11:45:36;;;;;;;9.00;6.53;;;22.90;48.80;;;;;;2616410;54;20391;-79
2022/10/26 11:51:29;;;;;;;6.30;5.80;;;23.30;47.40;;;;;;2614281;54;20414;-77
2022/10/26 11:57:16;;;;;;;6.60;6.00;;;23.10;46.50;;;;;;2616587;54;20395;-78
2022/10/26 12:03:14;;;;;;;7.30;6.30;;;23.20;44.70;;;;;;2617486;54;20639;-78
2022/10/26 12:09:11;;;;;;;9.23;6.17;;;22.60;46.20;;;;;;2617246;54;20430;-80
2022/10/26 12:25:14;;;;;;;7.07;6.50;;;24.30;47.80;;;;;;2615146;54;20440;-79
2022/10/26 12:31:35;;;;;;;5.93;5.40;;;23.40;51.90;;;;;;2615982;54;20524;-79
2022/10/26 12:43:39;;;;;;;6.20;5.70;;;23.90;46.70;;;;;;2614622;54;20410;-79
2022/10/26 13:13:04;;;;;;;4.90;4.50;;;22.90;63.20;;;;;;2615395;54;20972;-78
2022/10/26 13:18:51;;;;;;;5.17;4.70;;;23.40;55.90;;;;;;2616094;54;20383;-78
2022/10/26 13:34:33;;;;;;;5.23;4.83;;;23.90;53.40;;;;;;2616800;54;20347;-78
2022/10/26 13:40:24;;;;;;;5.27;4.87;;;24.40;50.00;;;;;;2615566;54;20363;-79
2022/10/26 13:52:53;;;;;;;6.87;5.57;;;25.20;45.80;;;;;;2615999;54;20484;-78
2022/10/26 14:05:18;;;;;;;4.57;4.27;;;23.80;47.40;;;;;;2616265;54;20379;-77
2022/10/26 14:11:09;;;;;;;5.53;5.00;;;24.10;47.60;;;;;;2616661;39;20878;-79
2022/10/26 14:16:58;;;;;;;12.57;5.60;;;24.50;46.00;;;;;;2617118;39;20725;-78
2022/10/26 14:22:47;;;;;;;15.53;4.90;;;24.10;44.10;;;;;;2616847;54;20403;-81
2022/10/26 14:38:48;;;;;;;10.37;5.50;;;23.20;53.10;;;;;;2618049;54;20408;-80
2022/10/26 14:44:38;;;;;;;6.10;5.60;;;23.60;54.10;;;;;;2617257;54;20387;-79
2022/10/26 14:50:30;;;;;;;5.60;5.20;;;22.80;55.90;;;;;;2616449;54;20370;-80
2022/10/26 15:03:02;;;;;;;4.93;4.63;;;21.80;53.70;;;;;;2616700;54;20526;-79
2022/10/26 15:08:58;;;;;;;5.37;4.97;;;21.80;58.00;;;;;;2617579;54;20366;-80
2022/10/26 15:14:46;;;;;;;7.30;5.77;;;21.20;68.10;;;;;;2616509;54;20422;-79
2022/10/26 15:20:34;;;;;;;6.37;5.13;;;20.80;78.00;;;;;;2616249;54;20399;-80
2022/10/26 15:26:23;;;;;;;6.10;5.10;;;20.30;92.50;;;;;;2615235;54;20165;-77
2022/10/26 15:32:27;;;;;;;7.60;6.80;;;20.40;93.10;;;;;;2617448;39;20776;-77
2022/10/26 15:38:15;;;;;;;7.33;4.90;;;20.00;97.40;;;;;;2616900;54;20511;-77
2022/10/26 15:44:07;;;;;;;15.97;4.97;;;19.60;99.90;;;;;;2617144;54;20122;-76
2022/10/26 15:49:55;;;;;;;11.43;5.50;;;19.40;99.90;;;;;;2617169;31;20942;-78
2022/10/26 15:55:43;;;;;;;5.73;4.90;;;19.20;99.90;;;;;;2616559;54;20694;-76
2022/10/26 16:01:31;;;;;;;6.20;4.57;;;18.90;99.90;;;;;;2616322;54;20162;-76
2022/10/26 16:07:19;;;;;;;5.77;5.17;;;18.70;99.90;;;;;;2614319;54;20126;-77
2022/10/26 16:13:12;;;;;;;7.00;4.60;;;18.50;99.90;;;;;;2615420;54;20386;-77
2022/10/26 16:19:00;;;;;;;5.43;4.93;;;18.30;99.90;;;;;;2615917;54;20384;-77
2022/10/26 16:24:47;;;;;;;6.63;4.50;;;18.10;99.90;;;;;;2616118;54;20206;-77
2022/10/26 16:27:33;;;;;;;11.43;4.80;;;17.90;99.90;;;;;;2614989;47;20424;-77
2022/10/26 16:29:58;;;;;;;4.97;4.57;;;17.80;99.90;;;;;;2616460;54;20143;-77
2022/10/26 16:42:01;;;;;;;7.40;4.30;;;17.30;99.90;;;;;;2611551;54;20399;-78
2022/10/26 16:47:49;;;;;;;6.20;4.47;;;17.20;99.90;;;;;;2613790;54;20419;-79
2022/10/26 16:53:37;;;;;;;5.70;4.40;;;17.20;99.90;;;;;;2618313;54;20151;-78
2022/10/26 16:59:25;;;;;;;4.80;4.50;;;16.80;99.90;;;;;;2618315;54;20443;-78
2022/10/26 17:05:13;;;;;;;4.60;3.73;;;16.50;99.90;;;;;;2618563;54;20210;-80
2022/10/26 17:11:03;;;;;;;7.70;4.33;;;17.00;99.90;;;;;;2617646;54;20137;-78
2022/10/26 17:16:50;;;;;;;7.67;4.30;;;17.10;99.90;;;;;;2616920;54;20411;-79
2022/10/26 17:22:38;;;;;;;4.63;4.30;;;17.30;99.90;;;;;;2616816;54;20153;-77
2022/10/26 17:32:06;;;;;;;5.57;3.90;;;17.40;99.90;;;;;;2616682;54;20418;-77
2022/10/26 17:37:54;;;;;;;4.93;4.60;;;17.20;99.90;;;;;;2618261;54;20415;-77
2022/10/26 17:43:43;;;;;;;8.23;4.13;;;16.90;99.90;;;;;;2616936;54;20398;-78
2022/10/26 17:49:31;;;;;;;5.30;4.43;;;17.10;99.90;;;;;;2616469;54;20387;-79
2022/10/26 17:55:20;;;;;;;5.87;5.13;;;17.20;99.90;;;;;;2616598;54;20126;-77
2022/10/26 18:01:11;;;;;;;4.10;3.80;;;16.90;99.90;;;;;;2616981;54;20435;-76
2022/10/26 18:06:58;;;;;;;5.20;4.07;;;16.40;99.90;;;;;;2615357;54;20394;-78
2022/10/26 18:12:46;;;;;;;4.57;3.10;;;16.20;99.90;;;;;;2616270;39;20450;-78
2022/10/26 18:18:36;;;;;;;7.73;5.40;;;16.10;99.90;;;;;;2615057;54;20374;-77
2022/10/26 18:24:24;;;;;;;4.90;3.93;;;15.70;99.90;;;;;;2616126;54;21720;-79
2022/10/26 18:27:33;;;;;;;5.10;4.70;;;15.70;99.90;;;;;;2615980;54;20427;-79
2022/10/26 18:29:59;;;;;;;4.83;4.20;;;15.60;99.90;;;;;;2616690;54;20187;-79
2022/10/26 18:35:47;;;;;;;7.93;4.70;;;15.40;99.90;;;;;;2614599;54;20258;-78
2022/10/26 18:41:35;;;;;;;4.93;3.80;;;15.40;99.90;;;;;;2615922;54;20935;-77
2022/10/26 18:47:23;;;;;;;7.70;4.20;;;15.10;99.90;;;;;;2616428;54;20158;-78
2022/10/26 18:53:15;;;;;;;5.80;4.63;;;14.90;99.90;;;;;;2616440;54;20254;-77
2022/10/26 18:59:04;;;;;;;4.53;4.13;;;14.90;99.90;;;;;;2617366;54;20387;-78
2022/10/26 19:04:52;;;;;;;6.30;4.27;;;14.70;99.90;;;;;;2616889;54;20359;-77
2022/10/26 19:10:40;;;;;;;5.27;3.93;;;14.50;99.90;;;;;;2618166;54;20394;-78
2022/10/26 19:16:33;;;;;;;6.03;5.43;;;14.40;99.90;;;;;;2617458;54;20115;-77
2022/10/26 19:22:20;;;;;;;11.03;6.93;;;14.30;99.90;;;;;;2617659;39;20769;-77
2022/10/26 19:32:05;;;;;;;8.47;5.90;;;14.30;99.90;;;;;;2615373;54;20387;-79
2022/10/26 19:37:52;;;;;;;6.50;5.90;;;14.00;99.90;;;;;;2618440;39;20430;-78
2022/10/26 19:43:42;;;;;;;12.70;5.53;;;14.10;99.90;;;;;;2617510;46;20145;-79
2022/10/26 19:49:29;;;;;;;9.70;7.40;;;14.10;99.90;;;;;;2616800;54;20411;-79
2022/10/26 19:55:17;;;;;;;11.00;7.00;;;14.10;99.90;;;;;;2617106;54;20122;-77
2022/10/26 20:01:04;;;;;;;6.73;5.40;;;14.00;99.90;;;;;;2617685;39;20496;-78
2022/10/26 20:06:52;;;;;;;11.80;7.83;;;14.00;99.90;;;;;;2616575;54;20663;-80
2022/10/26 20:12:40;;;;;;;12.17;7.63;;;14.00;99.90;;;;;;2616933;54;20717;-79
2022/10/26 20:18:28;;;;;;;9.73;7.80;;;14.30;99.90;;;;;;2616427;54;20134;-79
2022/10/26 20:24:16;;;;;;;9.17;6.50;;;14.30;99.90;;;;;;2616446;54;20134;-79
2022/10/26 20:27:35;;;;;;;9.30;6.17;;;14.20;99.90;;;;;;2617153;54;20424;-79
2022/10/26 20:33:23;;;;;;;7.17;6.50;;;14.00;99.90;;;;;;2617581;54;20415;-78
2022/10/26 20:39:11;;;;;;;8.40;6.30;;;14.10;99.90;;;;;;2617531;54;20435;-78
2022/10/26 20:45:01;;;;;;;12.73;7.20;;;14.00;99.90;;;;;;2614286;54;20482;-79
2022/10/26 20:50:59;;;;;;;8.50;6.53;;;13.70;99.90;;;;;;2616552;54;20367;-80
2022/10/26 20:56:48;;;;;;;7.90;6.60;;;13.60;99.90;;;;;;2617941;31;20870;-79
2022/10/26 21:02:35;;;;;;;8.40;6.03;;;13.70;99.90;;;;;;2616508;54;20387;-78
2022/10/26 21:08:23;;;;;;;14.90;5.73;;;13.80;99.90;;;;;;2617040;54;20114;-80
2022/10/26 21:14:11;;;;;;;13.57;5.80;;;14.30;99.90;;;;;;2615902;54;20146;-78
2022/10/26 21:19:59;;;;;;;9.60;6.47;;;14.10;99.90;;;;;;2615722;54;20153;-79
2022/10/26 21:25:47;;;;;;;6.60;5.90;;;14.10;99.90;;;;;;2616786;54;20173;-79
2022/10/26 21:28:49;;;;;;;9.37;6.17;;;14.10;99.90;;;;;;2616210;54;20427;-79
2022/10/26 21:31:17;;;;;;;8.37;6.13;;;13.90;99.90;;;;;;2616185;54;20150;-79
2022/10/26 21:37:04;;;;;;;8.13;6.00;;;13.50;99.90;;;;;;2616033;54;20512;-79
2022/10/26 21:42:52;;;;;;;7.33;5.57;;;13.30;99.90;;;;;;2614342;54;20134;-79
2022/10/26 21:48:40;;;;;;;12.57;6.87;;;13.30;99.90;;;;;;2616350;54;20158;-79
2022/10/26 21:54:27;;;;;;;10.07;6.60;;;13.30;99.90;;;;;;2616828;54;20231;-78
2022/10/26 22:00:15;;;;;;;7.33;5.40;;;13.20;99.90;;;;;;2615009;54;20219;-78
2022/10/26 22:06:04;;;;;;;7.30;5.27;;;13.10;99.90;;;;;;2616227;54;20387;-79
2022/10/26 22:11:52;;;;;;;8.40;5.00;;;13.20;99.90;;;;;;2616382;54;20399;-78
2022/10/26 22:17:41;;;;;;;8.17;5.30;;;13.20;99.90;;;;;;2616428;54;20138;-79
2022/10/26 22:23:32;;;;;;;7.73;4.17;;;13.20;99.90;;;;;;2614894;54;20435;-81
2022/10/26 22:33:22;;;;;;;9.10;5.20;;;14.20;99.90;;;;;;2616397;54;20418;-79
2022/10/26 22:39:10;;;;;;;6.93;4.37;;;14.60;99.90;;;;;;2614919;54;20971;-79
2022/10/26 22:44:57;;;;;;;8.47;4.43;;;15.30;99.90;;;;;;2617474;54;20138;-79
2022/10/26 22:50:45;;;;;;;5.27;4.07;;;15.30;99.90;;;;;;2616633;54;20674;-79
2022/10/26 22:56:35;;;;;;;4.80;4.30;;;15.40;99.90;;;;;;2617305;54;20157;-78
2022/10/26 23:02:22;;;;;;;6.10;4.20;;;15.30;99.90;;;;;;2617637;39;20817;-79
2022/10/26 23:08:10;;;;;;;9.30;4.43;;;15.10;99.90;;;;;;2617095;54;20122;-79
2022/10/26 23:14:00;;;;;;;7.40;4.17;;;15.20;99.90;;;;;;2616615;54;20123;-79
2022/10/26 23:19:48;;;;;;;7.53;4.40;;;15.40;99.90;;;;;;2616359;54;20374;-79
2022/10/26 23:25:35;;;;;;;8.13;4.70;;;15.00;99.90;;;;;;2616305;54;20123;-79
2022/10/26 23:28:49;;;;;;;4.40;4.00;;;14.90;99.90;;;;;;2615328;54;20432;-79
2022/10/26 23:31:20;;;;;;;9.37;4.53;;;14.80;99.90;;;;;;2616014;54;20238;-78
2022/10/26 23:37:08;;;;;;;7.27;5.53;;;14.60;99.90;;;;;;2617263;39;20749;-79
2022/10/26 23:42:56;;;;;;;7.63;5.10;;;14.30;99.90;;;;;;2617877;54;20122;-79
2022/10/26 23:48:43;;;;;;;12.30;4.30;;;14.10;99.90;;;;;;2616203;54;20114;-79
2022/10/26 23:54:31;;;;;;;4.93;3.87;;;14.20;99.90;;;;;;2616400;54;20165;-79
